createdAt,value
2023-04-19T00:02:18.408Z,8.63
2023-04-19T00:05:05.106Z,8.60
2023-04-19T00:07:51.226Z,8.66
2023-04-19T00:10:36.539Z,8.68
2023-04-19T00:13:21.939Z,8.67
2023-04-19T00:16:07.620Z,8.61
2023-04-19T00:18:52.713Z,8.65
2023-04-19T00:21:37.796Z,8.65
2023-04-19T00:24:22.645Z,8.60
2023-04-19T00:27:07.586Z,8.61
2023-04-19T00:29:52.531Z,8.58
2023-04-19T00:32:37.506Z,8.62
2023-04-19T00:35:22.406Z,8.58
2023-04-19T00:38:08.008Z,8.56
2023-04-19T00:40:53.007Z,8.54
2023-04-19T00:43:38.034Z,8.53
2023-04-19T00:46:23.631Z,8.55
2023-04-19T00:49:09.756Z,8.54
2023-04-19T00:51:54.842Z,8.54
2023-04-19T00:54:42.249Z,8.56
2023-04-19T00:57:29.615Z,8.56
2023-04-19T01:00:15.268Z,8.60
2023-04-19T01:03:00.340Z,8.64
2023-04-19T01:05:45.754Z,8.48
2023-04-19T01:08:30.878Z,8.54
2023-04-19T01:11:20.644Z,8.55
2023-04-19T01:14:05.582Z,8.52
2023-04-19T01:16:51.037Z,8.50
2023-04-19T01:19:36.679Z,8.42
2023-04-19T01:22:25.198Z,8.45
2023-04-19T01:25:10.449Z,8.44
2023-04-19T01:27:55.436Z,8.48
2023-04-19T01:30:40.517Z,8.48
2023-04-19T01:33:25.648Z,8.50
2023-04-19T01:36:10.991Z,8.50
2023-04-19T01:38:57.769Z,8.50
2023-04-19T01:41:42.591Z,8.49
2023-04-19T01:44:27.455Z,8.49
2023-04-19T01:47:12.481Z,8.43
2023-04-19T01:49:57.466Z,8.52
2023-04-19T01:52:42.575Z,8.51
2023-04-19T01:55:28.838Z,8.53
2023-04-19T01:58:13.906Z,8.51
2023-04-19T02:00:58.896Z,8.48
2023-04-19T02:03:44.319Z,8.56
2023-04-19T02:06:29.629Z,8.51
2023-04-19T02:09:14.861Z,8.61
2023-04-19T02:11:59.852Z,8.58
2023-04-19T02:14:44.815Z,8.59
2023-04-19T02:17:30.452Z,8.58
2023-04-19T02:20:15.595Z,8.59
2023-04-19T02:23:00.976Z,8.57
2023-04-19T02:25:46.049Z,8.58
2023-04-19T02:28:31.706Z,8.54
2023-04-19T02:31:17.088Z,8.59
2023-04-19T02:34:02.373Z,8.70
2023-04-19T02:36:47.549Z,8.67
2023-04-19T02:39:34.256Z,8.75
2023-04-19T02:42:19.209Z,8.70
2023-04-19T02:45:04.402Z,8.65
2023-04-19T02:47:49.360Z,8.74
2023-04-19T02:50:38.457Z,8.75
2023-04-19T02:53:23.536Z,8.72
2023-04-19T02:56:09.234Z,8.74
2023-04-19T02:58:54.977Z,8.73
2023-04-19T03:01:40.367Z,8.73
2023-04-19T03:04:25.499Z,8.68
2023-04-19T03:07:10.486Z,8.71
2023-04-19T03:09:55.879Z,8.72
2023-04-19T03:12:41.128Z,8.70
2023-04-19T03:15:26.342Z,8.69
2023-04-19T03:18:11.670Z,8.72
2023-04-19T03:20:56.629Z,8.72
2023-04-19T03:23:41.673Z,8.70
2023-04-19T03:26:26.691Z,8.71
2023-04-19T03:29:14.197Z,8.67
2023-04-19T03:31:59.385Z,8.69
2023-04-19T03:34:44.269Z,8.61
2023-04-19T03:37:29.352Z,8.69
2023-04-19T03:40:14.554Z,8.69
2023-04-19T03:42:59.798Z,8.66
2023-04-19T03:45:44.961Z,8.66
2023-04-19T03:48:29.889Z,8.68
2023-04-19T03:51:16.029Z,8.70
2023-04-19T03:54:00.919Z,8.71
2023-04-19T03:56:45.992Z,8.74
2023-04-19T03:59:31.252Z,8.66
2023-04-19T04:02:16.595Z,8.76
2023-04-19T04:05:01.906Z,8.76
2023-04-19T04:07:47.126Z,8.79
2023-04-19T04:10:32.275Z,8.77
2023-04-19T04:13:17.214Z,8.78
2023-04-19T04:16:02.977Z,8.75
2023-04-19T04:18:47.924Z,8.72
2023-04-19T04:21:33.473Z,8.80
2023-04-19T04:24:20.150Z,8.80
2023-04-19T04:27:05.764Z,8.79
2023-04-19T04:29:51.534Z,8.80
2023-04-19T04:32:38.327Z,8.81
2023-04-19T04:35:23.736Z,8.79
2023-04-19T04:38:21.407Z,8.74
2023-04-19T04:41:08.925Z,8.76
2023-04-19T04:44:10.809Z,8.76
2023-04-19T04:46:57.560Z,8.72
2023-04-19T04:49:42.502Z,8.77
2023-04-19T04:52:27.695Z,8.79
2023-04-19T04:55:12.865Z,8.73
2023-04-19T04:57:57.797Z,8.80
2023-04-19T05:00:42.692Z,8.74
2023-04-19T05:03:27.745Z,8.71
2023-04-19T05:06:13.347Z,8.80
2023-04-19T05:08:58.216Z,8.82
2023-04-19T05:11:43.189Z,8.83
2023-04-19T05:14:28.088Z,8.86
2023-04-19T05:17:13.123Z,8.86
2023-04-19T05:19:58.064Z,8.75
2023-04-19T05:22:43.049Z,8.76
2023-04-19T05:25:27.929Z,8.79
2023-04-19T05:28:13.240Z,8.87
2023-04-19T05:30:58.412Z,8.86
2023-04-19T05:33:43.571Z,8.88
2023-04-19T05:36:28.726Z,8.89
2023-04-19T05:39:13.940Z,8.93
2023-04-19T05:41:59.341Z,8.94
2023-04-19T05:44:44.533Z,8.95
2023-04-19T05:47:29.527Z,8.94
2023-04-19T05:50:17.855Z,8.92
2023-04-19T05:53:03.577Z,8.79
2023-04-19T05:55:50.758Z,8.93
2023-04-19T05:58:36.661Z,8.82
2023-04-19T06:01:22.195Z,8.98
2023-04-19T06:04:07.574Z,9.01
2023-04-19T06:06:52.782Z,9.04
2023-04-19T06:09:37.649Z,8.99
2023-04-19T06:12:22.868Z,9.05
2023-04-19T06:15:08.592Z,9.08
2023-04-19T06:17:53.651Z,9.11
2023-04-19T06:20:39.173Z,9.09
2023-04-19T06:23:25.467Z,9.05
2023-04-19T06:26:10.614Z,9.26
2023-04-19T06:28:55.860Z,9.26
2023-04-19T06:31:41.146Z,9.40
2023-04-19T06:34:26.458Z,9.43
2023-04-19T06:37:11.738Z,9.48
2023-04-19T06:39:56.755Z,9.52
2023-04-19T06:42:41.868Z,9.47
2023-04-19T06:45:27.147Z,9.61
2023-04-19T06:48:12.529Z,9.65
2023-04-19T06:50:57.936Z,9.73
2023-04-19T06:53:44.610Z,9.79
2023-04-19T06:56:59.467Z,9.89
2023-04-19T06:59:45.046Z,9.90
2023-04-19T07:02:30.312Z,10.02
2023-04-19T07:05:15.984Z,10.05
2023-04-19T07:08:01.329Z,10.13
2023-04-19T07:10:46.593Z,10.19
2023-04-19T07:13:31.622Z,10.24
2023-04-19T07:16:17.102Z,10.33
2023-04-19T07:19:02.362Z,10.38
2023-04-19T07:21:47.344Z,10.46
2023-04-19T07:24:32.372Z,10.57
2023-04-19T07:27:18.552Z,10.60
2023-04-19T07:30:04.104Z,10.68
2023-04-19T07:32:51.844Z,10.63
2023-04-19T07:35:39.707Z,10.75
2023-04-19T07:38:24.855Z,10.81
2023-04-19T07:41:10.246Z,10.85
2023-04-19T07:43:55.653Z,10.95
2023-04-19T07:46:45.233Z,11.00
2023-04-19T07:49:33.905Z,10.91
2023-04-19T07:52:18.750Z,10.96
2023-04-19T07:55:04.145Z,10.96
2023-04-19T07:57:49.837Z,10.90
2023-04-19T08:00:36.694Z,10.79
2023-04-19T08:03:22.226Z,10.82
2023-04-19T08:06:09.015Z,10.90
2023-04-19T08:08:54.079Z,10.97
2023-04-19T08:11:39.232Z,11.13
2023-04-19T08:14:37.785Z,11.24
2023-04-19T08:17:32.597Z,11.21
2023-04-19T08:20:22.289Z,11.37
2023-04-19T08:23:20.717Z,11.39
2023-04-19T08:26:09.731Z,11.51
2023-04-19T08:28:55.044Z,11.62
2023-04-19T08:31:44.005Z,11.69
2023-04-19T08:34:29.086Z,11.70
2023-04-19T08:37:14.376Z,11.58
2023-04-19T08:39:59.408Z,11.62
2023-04-19T08:42:44.337Z,11.65
2023-04-19T08:45:30.527Z,11.73
2023-04-19T08:48:16.822Z,11.77
2023-04-19T08:51:05.439Z,11.83
2023-04-19T08:53:52.409Z,11.84
2023-04-19T08:56:37.404Z,11.86
2023-04-19T08:59:22.957Z,11.83
2023-04-19T09:02:08.389Z,11.90
2023-04-19T09:04:54.070Z,11.98
2023-04-19T09:07:39.425Z,12.04
2023-04-19T09:10:25.964Z,12.09
2023-04-19T09:13:13.338Z,12.06
2023-04-19T09:16:01.685Z,12.08
2023-04-19T09:19:08.163Z,12.07
2023-04-19T09:22:13.404Z,12.18
2023-04-19T09:27:48.491Z,12.32
2023-04-19T09:30:38.070Z,12.27
2023-04-19T09:33:36.735Z,12.33
2023-04-19T09:36:33.435Z,12.41
2023-04-19T09:39:38.937Z,12.43
2023-04-19T09:42:47.327Z,12.44
2023-04-19T09:45:40.435Z,12.46
2023-04-19T09:48:25.436Z,12.58
2023-04-19T09:51:13.638Z,12.71
2023-04-19T09:53:59.984Z,12.76
2023-04-19T09:56:45.675Z,12.78
2023-04-19T09:59:30.754Z,12.80
2023-04-19T10:02:16.588Z,12.74
2023-04-19T10:05:19.963Z,12.87
2023-04-19T10:08:13.761Z,12.99
2023-04-19T10:10:59.345Z,12.98
2023-04-19T10:13:47.251Z,13.15
2023-04-19T10:16:32.904Z,13.22
2023-04-19T10:19:20.655Z,13.24
2023-04-19T10:22:07.772Z,13.22
2023-04-19T10:25:13.514Z,13.15
2023-04-19T10:27:58.732Z,13.09
2023-04-19T10:31:13.707Z,13.09
2023-04-19T10:33:58.821Z,13.05
2023-04-19T10:36:44.423Z,13.13
2023-04-19T10:39:43.995Z,12.99
2023-04-19T10:43:07.824Z,13.20
2023-04-19T10:45:53.441Z,13.38
2023-04-19T10:48:53.616Z,13.65
2023-04-19T10:51:42.360Z,13.76
2023-04-19T10:54:28.540Z,13.78
2023-04-19T10:57:13.545Z,13.79
2023-04-19T11:00:18.422Z,14.11
2023-04-19T11:04:01.277Z,14.43
2023-04-19T11:06:56.292Z,14.69
2023-04-19T11:09:45.974Z,14.81
2023-04-19T11:12:30.966Z,14.90
2023-04-19T11:15:16.208Z,14.83
2023-04-19T11:18:12.111Z,14.87
2023-04-19T11:20:57.986Z,15.09
2023-04-19T11:23:42.984Z,15.17
2023-04-19T11:26:28.223Z,15.66
2023-04-19T11:29:13.684Z,15.67
2023-04-19T11:32:00.218Z,15.54
2023-04-19T11:34:45.475Z,15.70
2023-04-19T11:37:35.817Z,15.48
2023-04-19T11:40:23.269Z,15.23
2023-04-19T11:43:08.306Z,15.43
2023-04-19T11:45:54.206Z,15.76
2023-04-19T11:48:50.414Z,15.83
2023-04-19T11:51:35.400Z,15.82
2023-04-19T11:54:23.715Z,15.97
2023-04-19T11:57:09.032Z,16.12
2023-04-19T12:00:12.383Z,15.80
2023-04-19T12:02:59.649Z,15.78
2023-04-19T12:05:54.613Z,15.99
2023-04-19T12:08:44.435Z,15.91
2023-04-19T12:11:43.196Z,15.84
2023-04-19T12:14:29.202Z,15.98
2023-04-19T12:17:15.741Z,16.12
2023-04-19T12:20:00.726Z,16.22
2023-04-19T12:22:46.059Z,16.24
2023-04-19T12:25:33.212Z,16.22
2023-04-19T12:28:18.146Z,16.23
2023-04-19T12:31:03.409Z,16.46
2023-04-19T12:33:49.106Z,16.67
2023-04-19T12:36:35.124Z,16.68
2023-04-19T12:39:20.306Z,16.57
2023-04-19T12:42:06.151Z,16.54
2023-04-19T12:44:51.384Z,16.47
2023-04-19T12:47:36.288Z,16.54
2023-04-19T12:50:30.496Z,16.56
2023-04-19T12:53:15.852Z,16.84
2023-04-19T12:56:01.077Z,16.59
2023-04-19T12:58:46.431Z,16.73
2023-04-19T13:01:32.460Z,17.12
2023-04-19T13:04:18.456Z,17.27
2023-04-19T13:07:03.952Z,16.90
2023-04-19T13:09:49.205Z,16.20
2023-04-19T13:12:34.244Z,15.90
2023-04-19T13:15:19.646Z,15.56
2023-04-19T13:18:04.800Z,16.14
2023-04-19T13:20:51.360Z,16.49
2023-04-19T13:23:36.470Z,16.82
2023-04-19T13:26:22.028Z,17.03
2023-04-19T13:29:10.335Z,17.23
2023-04-19T13:31:55.666Z,17.37
2023-04-19T13:34:40.993Z,17.31
2023-04-19T13:37:26.270Z,17.48
2023-04-19T13:40:18.924Z,17.35
2023-04-19T13:43:05.006Z,17.17
2023-04-19T13:45:50.354Z,17.29
2023-04-19T13:48:35.370Z,17.58
2023-04-19T13:51:29.428Z,17.51
2023-04-19T13:54:21.280Z,17.35
2023-04-19T13:57:06.603Z,17.36
2023-04-19T13:59:51.630Z,17.54
2023-04-19T14:02:36.867Z,17.62
2023-04-19T14:05:22.109Z,17.54
2023-04-19T14:08:07.338Z,17.51
2023-04-19T14:10:52.306Z,17.71
2023-04-19T14:13:37.511Z,17.76
2023-04-19T14:16:25.200Z,17.73
2023-04-19T14:19:10.762Z,17.75
2023-04-19T14:21:56.456Z,17.89
2023-04-19T14:24:41.544Z,17.84
2023-04-19T14:27:26.893Z,17.92
2023-04-19T14:30:12.061Z,17.52
2023-04-19T14:32:57.461Z,17.70
2023-04-19T14:35:43.091Z,17.82
2023-04-19T14:38:28.194Z,18.04
2023-04-19T14:41:13.378Z,17.92
2023-04-19T14:43:58.687Z,17.98
2023-04-19T14:46:43.693Z,17.98
2023-04-19T14:49:28.808Z,17.78
2023-04-19T14:52:14.138Z,17.68
2023-04-19T14:55:00.004Z,17.64
2023-04-19T14:57:45.026Z,17.62
2023-04-19T15:00:30.133Z,17.78
2023-04-19T15:03:17.440Z,17.58
2023-04-19T15:06:03.710Z,17.64
2023-04-19T15:08:49.120Z,17.76
2023-04-19T15:11:34.080Z,17.71
2023-04-19T15:14:19.853Z,17.54
2023-04-19T15:17:05.808Z,17.44
2023-04-19T15:19:50.924Z,17.25
2023-04-19T15:22:36.333Z,17.23
2023-04-19T15:25:21.630Z,17.33
2023-04-19T15:28:06.775Z,17.19
2023-04-19T15:31:04.004Z,17.05
2023-04-19T15:33:48.976Z,16.88
2023-04-19T15:36:33.970Z,16.84
2023-04-19T15:39:19.034Z,16.43
2023-04-19T15:42:05.550Z,16.45
2023-04-19T15:44:50.557Z,16.34
2023-04-19T15:47:35.880Z,16.15
2023-04-19T15:50:20.880Z,16.01
2023-04-19T15:53:07.133Z,15.89
2023-04-19T15:55:53.358Z,15.68
2023-04-19T15:58:39.870Z,15.36
2023-04-19T16:01:25.309Z,15.06
2023-04-19T16:04:10.582Z,14.63
2023-04-19T16:06:55.943Z,14.31
2023-04-19T16:09:41.186Z,14.13
2023-04-19T16:12:27.338Z,13.99
2023-04-19T16:15:13.358Z,13.82
2023-04-19T16:17:58.541Z,13.58
2023-04-19T16:20:43.485Z,13.53
2023-04-19T16:23:28.368Z,13.35
2023-04-19T16:26:13.224Z,13.21
2023-04-19T16:28:59.370Z,13.14
2023-04-19T16:31:44.456Z,13.02
2023-04-19T16:34:29.460Z,12.93
2023-04-19T16:37:16.127Z,12.83
2023-04-19T16:40:09.801Z,12.82
2023-04-19T16:42:54.949Z,12.68
2023-04-19T16:45:42.637Z,12.50
2023-04-19T16:48:27.950Z,12.44
2023-04-19T16:51:13.177Z,12.42
2023-04-19T16:53:58.121Z,12.25
2023-04-19T16:56:43.309Z,12.28
2023-04-19T16:59:28.422Z,12.21
2023-04-19T17:02:13.494Z,12.16
2023-04-19T17:04:59.205Z,12.13
2023-04-19T17:07:44.595Z,12.00
2023-04-19T17:10:29.925Z,11.90
2023-04-19T17:13:15.107Z,11.86
2023-04-19T17:16:00.499Z,11.84
2023-04-19T17:18:45.930Z,11.84
2023-04-19T17:21:31.417Z,11.64
2023-04-19T17:24:16.669Z,11.63
2023-04-19T17:27:02.206Z,11.58
2023-04-19T17:29:47.508Z,11.54
2023-04-19T17:32:33.145Z,11.45
2023-04-19T17:35:18.377Z,11.43
2023-04-19T17:38:03.858Z,11.45
2023-04-19T17:40:48.839Z,11.38
2023-04-19T17:43:34.456Z,11.34
2023-04-19T17:46:20.839Z,11.36
2023-04-19T17:49:06.033Z,11.19
2023-04-19T17:51:51.100Z,11.24
2023-04-19T17:54:36.234Z,11.18
2023-04-19T17:57:21.437Z,11.03
2023-04-19T18:00:07.964Z,11.03
2023-04-19T18:02:53.185Z,10.96
2023-04-19T18:05:39.564Z,10.91
2023-04-19T18:08:24.747Z,10.73
2023-04-19T18:11:13.136Z,10.81
2023-04-19T18:13:58.559Z,10.79
2023-04-19T18:16:43.792Z,10.62
2023-04-19T18:19:29.152Z,10.56
2023-04-19T18:22:14.087Z,10.58
2023-04-19T18:24:59.161Z,10.51
2023-04-19T18:27:44.641Z,10.46
2023-04-19T18:30:29.762Z,10.45
2023-04-19T18:33:15.202Z,10.41
2023-04-19T18:36:00.337Z,10.38
2023-04-19T18:38:45.480Z,10.34
2023-04-19T18:41:30.728Z,10.26
2023-04-19T18:44:39.053Z,10.24
2023-04-19T18:47:21.177Z,10.10
2023-04-19T18:50:08.395Z,10.09
2023-04-19T18:52:53.429Z,10.08
2023-04-19T18:55:38.894Z,10.06
2023-04-19T18:58:25.878Z,9.97
2023-04-19T19:01:12.012Z,9.91
2023-04-19T19:04:19.125Z,9.81
2023-04-19T19:07:14.248Z,9.86
2023-04-19T19:12:57.093Z,9.81
2023-04-19T19:15:42.297Z,9.67
2023-04-19T19:18:29.410Z,9.74
2023-04-19T19:21:15.034Z,9.75
2023-04-19T19:24:00.630Z,9.70
2023-04-19T19:26:45.905Z,9.71
2023-04-19T19:29:36.294Z,9.64
2023-04-19T19:32:22.118Z,9.45
2023-04-19T19:35:09.327Z,9.55
2023-04-19T19:37:54.580Z,9.50
2023-04-19T19:40:59.313Z,9.50
2023-04-19T19:43:45.345Z,9.49
2023-04-19T19:46:31.071Z,9.42
2023-04-19T19:49:16.400Z,9.35
2023-04-19T19:52:02.498Z,9.25
2023-04-19T19:54:48.354Z,9.25
2023-04-19T20:03:09.398Z,9.05
2023-04-19T20:05:56.982Z,9.09
2023-04-19T20:08:44.517Z,9.25
2023-04-19T20:11:30.130Z,9.23
2023-04-19T20:14:15.360Z,9.18
2023-04-19T20:17:01.054Z,9.07
2023-04-19T20:19:46.352Z,9.42
2023-04-19T20:22:31.417Z,9.23
2023-04-19T20:25:16.632Z,9.07
2023-04-19T20:28:01.965Z,8.98
2023-04-19T20:30:47.243Z,8.93
2023-04-19T20:33:32.248Z,8.84
2023-04-19T20:36:17.788Z,8.88
2023-04-19T20:39:09.156Z,8.81
2023-04-19T20:41:54.127Z,8.79
2023-04-19T20:44:38.943Z,8.75
2023-04-19T20:47:25.606Z,8.71
2023-04-19T20:50:11.306Z,8.69
2023-04-19T20:52:56.656Z,8.67
2023-04-19T20:55:43.471Z,8.63
2023-04-19T20:58:28.375Z,8.67
2023-04-19T21:01:17.095Z,8.66
2023-04-19T21:04:02.370Z,8.66
2023-04-19T21:06:47.582Z,8.60
2023-04-19T21:09:33.034Z,8.60
2023-04-19T21:12:18.242Z,8.47
2023-04-19T21:15:04.942Z,8.59
2023-04-19T21:17:50.100Z,8.61
2023-04-19T21:20:35.520Z,8.59
2023-04-19T21:23:20.914Z,8.60
2023-04-19T21:26:06.158Z,8.57
2023-04-19T21:28:51.770Z,8.48
2023-04-19T21:31:37.031Z,8.45
2023-04-19T21:34:22.963Z,8.49
2023-04-19T21:37:08.273Z,8.47
2023-04-19T21:39:54.433Z,8.45
2023-04-19T21:42:39.561Z,8.46
2023-04-19T21:45:24.749Z,8.44
2023-04-19T21:48:10.059Z,8.39
2023-04-19T21:50:55.353Z,8.41
2023-04-19T21:53:40.498Z,8.41
2023-04-19T21:56:25.886Z,8.29
2023-04-19T21:59:11.094Z,8.37
2023-04-19T22:01:56.203Z,8.28
2023-04-19T22:04:41.612Z,8.32
2023-04-19T22:07:30.231Z,8.34
2023-04-19T22:10:16.484Z,8.31
2023-04-19T22:13:03.469Z,8.29
2023-04-19T22:15:48.471Z,8.29
2023-04-19T22:18:35.683Z,8.28
2023-04-19T22:21:21.043Z,8.26
2023-04-19T22:24:06.669Z,8.23
2023-04-19T22:26:58.031Z,8.17
2023-04-19T22:29:43.028Z,8.25
2023-04-19T22:32:27.927Z,8.23
2023-04-19T22:35:12.814Z,8.20
2023-04-19T22:37:57.776Z,8.22
2023-04-19T22:40:42.768Z,8.22
2023-04-19T22:43:28.033Z,8.20
2023-04-19T22:46:13.238Z,8.19
2023-04-19T22:48:58.561Z,8.14
2023-04-19T22:51:45.137Z,8.10
2023-04-19T22:54:30.878Z,8.05
2023-04-19T22:57:16.489Z,8.09
2023-04-19T23:00:01.741Z,8.10
2023-04-19T23:02:47.154Z,8.09
2023-04-19T23:05:33.514Z,8.11
2023-04-19T23:08:19.908Z,8.09
2023-04-19T23:11:06.187Z,8.09
2023-04-19T23:13:54.864Z,8.07
2023-04-19T23:16:40.378Z,8.07
2023-04-19T23:19:26.349Z,8.02
2023-04-19T23:22:11.200Z,7.95
2023-04-19T23:24:56.141Z,8.02
2023-04-19T23:27:41.185Z,7.97
2023-04-19T23:30:26.509Z,7.95
2023-04-19T23:33:11.522Z,7.89
2023-04-19T23:35:56.483Z,7.93
2023-04-19T23:38:41.711Z,7.91
2023-04-19T23:41:27.019Z,7.88
2023-04-19T23:44:12.328Z,7.83
2023-04-19T23:46:57.301Z,7.89
2023-04-19T23:49:42.278Z,7.86
2023-04-19T23:52:27.553Z,7.87
2023-04-19T23:55:13.047Z,7.87
2023-04-19T23:57:58.634Z,7.85
